createdAt,value
2023-04-06T00:00:35.434Z,56.56
2023-04-06T00:03:02.237Z,56.60
2023-04-06T00:05:31.522Z,56.44
2023-04-06T00:08:01.410Z,56.08
2023-04-06T00:10:28.220Z,55.81
2023-04-06T00:12:57.604Z,55.87
2023-04-06T00:15:24.265Z,56.44
2023-04-06T00:17:51.121Z,56.50
2023-04-06T00:20:18.232Z,55.78
2023-04-06T00:22:45.772Z,56.56
2023-04-06T00:25:12.527Z,56.20
2023-04-06T00:27:39.719Z,56.89
2023-04-06T00:30:06.936Z,57.29
2023-04-06T00:32:33.722Z,56.34
2023-04-06T00:35:00.374Z,57.66
2023-04-06T00:37:27.004Z,57.48
2023-04-06T00:39:53.642Z,57.62
2023-04-06T00:42:26.573Z,57.07
2023-04-06T00:44:54.602Z,57.03
2023-04-06T00:47:22.340Z,57.51
2023-04-06T00:49:49.453Z,56.79
2023-04-06T00:52:16.901Z,57.43
2023-04-06T00:54:43.482Z,57.18
2023-04-06T00:57:10.849Z,57.71
2023-04-06T00:59:37.577Z,57.59
2023-04-06T01:02:04.545Z,57.68
2023-04-06T01:04:31.567Z,57.60
2023-04-06T01:06:58.186Z,58.28
2023-04-06T01:09:24.809Z,58.43
2023-04-06T01:11:51.415Z,58.31
2023-04-06T01:14:18.036Z,58.15
2023-04-06T01:16:44.756Z,58.58
2023-04-06T01:19:12.992Z,58.32
2023-04-06T01:21:40.496Z,58.70
2023-04-06T01:24:08.089Z,58.75
2023-04-06T01:26:36.075Z,58.57
2023-04-06T01:29:04.193Z,58.76
2023-04-06T01:31:31.039Z,58.91
2023-04-06T01:33:57.861Z,58.51
2023-04-06T01:36:24.447Z,58.87
2023-04-06T01:38:51.216Z,59.34
2023-04-06T01:41:17.798Z,58.70
2023-04-06T01:43:46.398Z,59.36
2023-04-06T01:46:12.989Z,59.09
2023-04-06T01:48:39.620Z,59.33
2023-04-06T01:51:06.216Z,59.33
2023-04-06T01:53:32.800Z,58.67
2023-04-06T01:55:59.365Z,58.93
2023-04-06T01:58:26.533Z,58.74
2023-04-06T02:00:53.197Z,59.42
2023-04-06T02:03:19.975Z,59.15
2023-04-06T02:05:47.347Z,58.40
2023-04-06T02:08:13.961Z,58.65
2023-04-06T02:10:40.801Z,59.22
2023-04-06T02:13:07.418Z,59.17
2023-04-06T02:15:34.013Z,58.96
2023-04-06T02:18:01.205Z,59.05
2023-04-06T02:20:27.976Z,57.99
2023-04-06T02:22:54.553Z,58.44
2023-04-06T02:25:21.223Z,58.69
2023-04-06T02:27:47.854Z,58.33
2023-04-06T02:30:14.458Z,58.77
2023-04-06T02:32:41.248Z,58.62
2023-04-06T02:35:08.247Z,58.71
2023-04-06T02:37:34.873Z,58.69
2023-04-06T02:40:01.509Z,58.70
2023-04-06T02:42:28.113Z,59.19
2023-04-06T02:44:54.748Z,59.65
2023-04-06T02:47:21.566Z,59.06
2023-04-06T02:49:50.523Z,59.40
2023-04-06T02:52:18.887Z,59.14
2023-04-06T02:54:45.490Z,58.71
2023-04-06T02:57:12.284Z,59.15
2023-04-06T02:59:39.205Z,59.39
2023-04-06T03:02:06.170Z,60.05
2023-04-06T03:04:32.798Z,59.23
2023-04-06T03:07:01.285Z,59.31
2023-04-06T03:09:28.560Z,59.44
2023-04-06T03:11:55.164Z,59.98
2023-04-06T03:14:23.256Z,59.76
2023-04-06T03:16:50.745Z,59.95
2023-04-06T03:19:17.360Z,59.77
2023-04-06T03:21:44.017Z,59.69
2023-04-06T03:24:10.653Z,59.56
2023-04-06T03:26:37.221Z,60.22
2023-04-06T03:29:03.847Z,59.78
2023-04-06T03:31:30.657Z,60.01
2023-04-06T03:33:57.433Z,59.84
2023-04-06T03:36:24.008Z,59.71
2023-04-06T03:38:50.953Z,59.83
2023-04-06T03:41:17.628Z,60.09
2023-04-06T03:43:44.305Z,60.41
2023-04-06T03:46:10.985Z,60.71
2023-04-06T03:48:37.680Z,60.67
2023-04-06T03:51:04.437Z,60.41
2023-04-06T03:53:31.128Z,60.40
2023-04-06T03:55:57.730Z,60.41
2023-04-06T03:58:24.365Z,61.04
2023-04-06T04:00:50.999Z,60.99
2023-04-06T04:03:17.743Z,60.73
2023-04-06T04:05:44.562Z,61.27
2023-04-06T04:08:11.505Z,60.92
2023-04-06T04:10:38.085Z,61.30
2023-04-06T04:13:04.653Z,60.75
2023-04-06T04:15:31.238Z,60.56
2023-04-06T04:17:57.858Z,61.19
2023-04-06T04:20:24.581Z,60.93
2023-04-06T04:22:51.212Z,61.36
2023-04-06T04:25:17.812Z,61.34
2023-04-06T04:27:44.384Z,61.09
2023-04-06T04:30:11.476Z,61.62
2023-04-06T04:32:38.108Z,61.59
2023-04-06T04:35:04.845Z,61.87
2023-04-06T04:37:31.732Z,61.23
2023-04-06T04:39:58.331Z,61.95
2023-04-06T04:42:24.957Z,61.19
2023-04-06T04:44:51.558Z,61.47
2023-04-06T04:47:18.244Z,61.35
2023-04-06T04:49:44.848Z,61.55
2023-04-06T04:52:11.461Z,61.43
2023-04-06T04:54:38.786Z,61.30
2023-04-06T04:57:05.376Z,60.83
2023-04-06T04:59:32.164Z,61.17
2023-04-06T05:01:58.831Z,60.31
2023-04-06T05:04:25.404Z,61.08
2023-04-06T05:06:52.091Z,60.96
2023-04-06T05:09:18.817Z,60.52
2023-04-06T05:11:45.487Z,60.80
2023-04-06T05:14:12.131Z,60.78
2023-04-06T05:16:38.766Z,60.24
2023-04-06T05:19:05.378Z,59.65
2023-04-06T05:21:32.809Z,59.92
2023-04-06T05:23:59.719Z,59.71
2023-04-06T05:26:26.450Z,59.75
2023-04-06T05:28:53.082Z,59.33
2023-04-06T05:31:19.742Z,59.75
2023-04-06T05:33:46.442Z,59.13
2023-04-06T05:36:14.988Z,58.85
2023-04-06T05:38:41.967Z,58.02
2023-04-06T05:41:08.748Z,57.77
2023-04-06T05:43:35.514Z,56.69
2023-04-06T05:46:02.231Z,55.74
2023-04-06T05:48:28.898Z,55.47
2023-04-06T05:50:55.796Z,55.60
2023-04-06T05:53:22.546Z,55.12
2023-04-06T05:55:49.107Z,54.99
2023-04-06T05:58:15.942Z,54.79
2023-04-06T06:00:43.604Z,54.98
2023-04-06T06:03:11.022Z,54.69
2023-04-06T06:05:37.709Z,54.13
2023-04-06T06:08:04.424Z,53.81
2023-04-06T06:10:31.206Z,52.77
2023-04-06T06:12:57.825Z,53.20
2023-04-06T06:15:24.413Z,53.06
2023-04-06T06:17:51.037Z,53.11
2023-04-06T06:20:17.897Z,53.48
2023-04-06T06:22:44.517Z,53.31
2023-04-06T06:25:11.181Z,52.80
2023-04-06T06:27:38.003Z,52.09
2023-04-06T06:30:05.226Z,52.69
2023-04-06T06:32:33.633Z,53.45
2023-04-06T06:35:00.488Z,53.31
2023-04-06T06:37:28.206Z,53.03
2023-04-06T06:39:55.977Z,53.51
2023-04-06T06:42:22.585Z,53.82
2023-04-06T06:44:51.260Z,54.07
2023-04-06T06:47:17.905Z,50.90
2023-04-06T06:49:46.808Z,51.54
2023-04-06T06:52:13.387Z,49.23
2023-04-06T06:54:39.991Z,49.28
2023-04-06T06:57:06.789Z,49.68
2023-04-06T06:59:34.793Z,48.32
2023-04-06T07:02:01.582Z,47.69
2023-04-06T07:04:28.382Z,47.42
2023-04-06T07:06:54.998Z,45.46
2023-04-06T07:09:21.680Z,46.18
2023-04-06T07:11:49.102Z,46.01
2023-04-06T07:14:17.254Z,45.71
2023-04-06T07:16:46.219Z,44.73
2023-04-06T07:19:12.956Z,45.15
2023-04-06T07:21:39.559Z,45.21
2023-04-06T07:24:06.664Z,44.33
2023-04-06T07:26:33.654Z,44.46
2023-04-06T07:29:00.236Z,44.25
2023-04-06T07:31:26.945Z,44.00
2023-04-06T07:33:53.683Z,42.91
2023-04-06T07:36:21.384Z,43.29
2023-04-06T07:38:48.037Z,42.97
2023-04-06T07:41:14.665Z,41.94
2023-04-06T07:43:41.279Z,42.73
2023-04-06T07:46:08.220Z,41.04
2023-04-06T07:48:35.144Z,41.00
2023-04-06T07:51:06.068Z,40.16
2023-04-06T07:53:33.022Z,40.58
2023-04-06T07:56:00.370Z,40.50
2023-04-06T07:58:27.145Z,39.31
2023-04-06T08:00:53.917Z,39.61
2023-04-06T08:03:22.526Z,40.46
2023-04-06T08:05:49.252Z,40.46
2023-04-06T08:08:16.888Z,40.73
2023-04-06T08:10:43.518Z,40.68
2023-04-06T08:13:10.380Z,40.43
2023-04-06T08:15:37.100Z,41.04
2023-04-06T08:18:03.826Z,39.20
2023-04-06T08:20:30.868Z,39.61
2023-04-06T08:22:57.425Z,39.76
2023-04-06T08:25:24.241Z,39.42
2023-04-06T08:27:50.950Z,39.50
2023-04-06T08:30:17.675Z,40.01
2023-04-06T08:32:44.412Z,39.70
2023-04-06T08:35:11.131Z,39.61
2023-04-06T08:37:37.712Z,39.66
2023-04-06T08:40:05.215Z,39.16
2023-04-06T08:42:34.488Z,38.87
2023-04-06T08:45:01.762Z,40.06
2023-04-06T08:47:30.685Z,38.50
2023-04-06T08:49:58.175Z,38.69
2023-04-06T08:52:27.746Z,38.58
2023-04-06T08:54:54.448Z,36.14
2023-04-06T08:57:21.419Z,36.74
2023-04-06T08:59:48.871Z,37.26
2023-04-06T09:02:19.430Z,36.46
2023-04-06T09:04:50.897Z,36.06
2023-04-06T09:07:17.851Z,36.01
2023-04-06T09:09:48.817Z,37.14
2023-04-06T09:12:29.303Z,36.93
2023-04-06T09:14:57.352Z,36.58
2023-04-06T09:17:28.471Z,37.13
2023-04-06T09:19:56.112Z,34.68
2023-04-06T09:22:25.571Z,35.24
2023-04-06T09:24:54.739Z,35.52
2023-04-06T09:27:32.080Z,35.60
2023-04-06T09:30:06.646Z,35.47
2023-04-06T09:32:33.445Z,35.42
2023-04-06T09:35:10.033Z,34.79
2023-04-06T09:37:36.816Z,34.71
2023-04-06T09:40:06.334Z,34.69
2023-04-06T09:42:33.107Z,34.15
2023-04-06T09:44:59.783Z,33.97
2023-04-06T09:47:29.517Z,34.38
2023-04-06T09:50:00.650Z,34.31
2023-04-06T09:52:31.243Z,34.56
2023-04-06T09:55:02.473Z,33.99
2023-04-06T09:57:38.531Z,34.30
2023-04-06T10:00:12.303Z,33.93
2023-04-06T10:02:44.894Z,33.95
2023-04-06T10:05:51.751Z,33.14
2023-04-06T10:08:20.117Z,33.75
2023-04-06T10:10:48.211Z,33.73
2023-04-06T10:13:15.820Z,32.99
2023-04-06T10:15:43.514Z,32.82
2023-04-06T10:18:10.505Z,32.80
2023-04-06T10:20:43.436Z,30.99
2023-04-06T10:23:21.115Z,31.97
2023-04-06T10:25:58.214Z,31.50
2023-04-06T10:28:26.378Z,31.47
2023-04-06T10:31:00.616Z,32.11
2023-04-06T10:33:27.894Z,30.91
2023-04-06T10:35:56.679Z,31.25
2023-04-06T10:38:41.377Z,31.77
2023-04-06T10:41:12.659Z,29.27
2023-04-06T10:43:42.099Z,29.98
2023-04-06T10:46:10.724Z,28.09
2023-04-06T10:48:47.608Z,30.03
2023-04-06T10:51:16.839Z,31.33
2023-04-06T10:53:50.602Z,28.74
2023-04-06T10:56:18.926Z,29.54
2023-04-06T10:58:57.146Z,30.27
2023-04-06T11:01:26.056Z,28.42
2023-04-06T11:03:55.384Z,28.99
2023-04-06T11:06:23.772Z,28.22
2023-04-06T11:08:52.073Z,29.41
2023-04-06T11:11:21.849Z,29.59
2023-04-06T11:13:52.656Z,28.55
2023-04-06T11:16:22.112Z,28.97
2023-04-06T11:18:56.553Z,29.55
2023-04-06T11:21:44.328Z,28.54
2023-04-06T11:24:13.009Z,28.69
2023-04-06T11:26:46.909Z,28.11
2023-04-06T11:29:14.447Z,28.81
2023-04-06T11:31:48.385Z,28.98
2023-04-06T11:34:20.341Z,29.20
2023-04-06T11:36:48.807Z,28.68
2023-04-06T11:39:22.388Z,27.98
2023-04-06T11:41:50.762Z,28.51
2023-04-06T11:44:34.964Z,28.70
2023-04-06T11:47:05.946Z,27.16
2023-04-06T11:49:34.770Z,28.06
2023-04-06T11:52:02.139Z,27.32
2023-04-06T11:54:39.242Z,26.95
2023-04-06T11:57:06.545Z,27.56
2023-04-06T11:59:34.132Z,26.29
2023-04-06T12:02:02.542Z,27.86
2023-04-06T12:04:29.435Z,27.06
2023-04-06T12:06:56.687Z,27.35
2023-04-06T12:09:23.726Z,27.47
2023-04-06T12:11:50.907Z,28.10
2023-04-06T12:14:17.645Z,27.96
2023-04-06T12:16:44.814Z,27.61
2023-04-06T12:19:11.534Z,27.63
2023-04-06T12:21:38.461Z,27.98
2023-04-06T12:24:06.541Z,28.18
2023-04-06T12:26:33.736Z,28.17
2023-04-06T12:29:07.994Z,28.47
2023-04-06T12:31:42.007Z,27.69
2023-04-06T12:34:08.656Z,28.98
2023-04-06T12:36:35.474Z,28.44
2023-04-06T12:39:02.158Z,29.25
2023-04-06T12:41:29.420Z,30.19
2023-04-06T12:43:56.694Z,29.69
2023-04-06T12:46:24.341Z,28.99
2023-04-06T12:48:54.614Z,30.87
2023-04-06T12:51:21.520Z,30.26
2023-04-06T12:53:48.213Z,29.66
2023-04-06T12:56:17.927Z,28.89
2023-04-06T12:58:45.783Z,29.30
2023-04-06T13:01:15.591Z,29.70
2023-04-06T13:03:42.329Z,29.21
2023-04-06T13:06:09.717Z,28.73
2023-04-06T13:08:38.412Z,28.55
2023-04-06T13:11:05.996Z,29.14
2023-04-06T13:13:32.944Z,28.75
2023-04-06T13:16:08.353Z,28.74
2023-04-06T13:18:36.476Z,29.20
2023-04-06T13:21:03.280Z,29.51
2023-04-06T13:23:29.983Z,30.85
2023-04-06T13:26:05.864Z,30.18
2023-04-06T13:28:34.104Z,29.68
2023-04-06T13:31:02.396Z,29.92
2023-04-06T13:33:30.226Z,29.38
2023-04-06T13:35:57.157Z,30.05
2023-04-06T13:38:25.502Z,29.95
2023-04-06T13:40:52.579Z,31.51
2023-04-06T13:43:21.263Z,32.02
2023-04-06T13:45:56.484Z,31.88
2023-04-06T13:48:23.400Z,31.49
2023-04-06T13:50:50.263Z,31.44
2023-04-06T13:53:16.984Z,31.61
2023-04-06T13:55:43.834Z,31.74
2023-04-06T13:58:10.908Z,32.76
2023-04-06T14:00:37.986Z,32.31
2023-04-06T14:03:05.148Z,32.80
2023-04-06T14:05:33.579Z,33.00
2023-04-06T14:08:00.395Z,32.49
2023-04-06T14:10:28.798Z,32.56
2023-04-06T14:12:56.719Z,33.03
2023-04-06T14:15:24.856Z,33.49
2023-04-06T14:17:52.333Z,33.14
2023-04-06T14:20:20.154Z,33.79
2023-04-06T14:22:47.570Z,33.56
2023-04-06T14:25:14.506Z,32.35
2023-04-06T14:27:41.338Z,33.01
2023-04-06T14:30:09.232Z,32.82
2023-04-06T14:32:37.509Z,33.18
2023-04-06T14:35:07.385Z,33.17
2023-04-06T14:37:34.585Z,32.82
2023-04-06T14:40:01.329Z,33.22
2023-04-06T14:42:27.961Z,34.46
2023-04-06T14:44:54.770Z,34.48
2023-04-06T14:47:22.662Z,34.88
2023-04-06T14:49:52.935Z,34.60
2023-04-06T14:52:19.764Z,35.20
2023-04-06T14:54:49.077Z,34.46
2023-04-06T14:57:15.654Z,34.95
2023-04-06T14:59:42.257Z,35.31
2023-04-06T15:02:08.947Z,36.41
2023-04-06T15:04:37.289Z,37.40
2023-04-06T15:07:04.261Z,37.79
2023-04-06T15:09:31.461Z,37.74
2023-04-06T15:11:58.173Z,38.56
2023-04-06T15:14:24.837Z,38.38
2023-04-06T15:16:51.422Z,39.40
2023-04-06T15:19:18.091Z,40.24
2023-04-06T15:21:44.674Z,40.81
2023-04-06T15:24:11.392Z,41.18
2023-04-06T15:26:38.029Z,41.47
2023-04-06T15:29:04.766Z,41.66
2023-04-06T15:31:37.483Z,41.79
2023-04-06T15:34:09.340Z,42.10
2023-04-06T15:36:36.529Z,42.34
2023-04-06T15:39:04.887Z,42.28
2023-04-06T15:41:31.745Z,42.62
2023-04-06T15:43:58.840Z,43.05
2023-04-06T15:46:28.180Z,42.73
2023-04-06T15:48:56.100Z,43.53
2023-04-06T15:51:24.052Z,43.18
2023-04-06T15:53:50.796Z,44.29
2023-04-06T15:56:17.382Z,44.13
2023-04-06T15:58:44.156Z,43.78
2023-04-06T16:01:13.249Z,44.26
2023-04-06T16:03:40.032Z,44.48
2023-04-06T16:06:08.900Z,44.76
2023-04-06T16:08:36.974Z,45.05
2023-04-06T16:11:03.729Z,44.78
2023-04-06T16:13:30.912Z,46.16
2023-04-06T16:15:57.612Z,45.82
2023-04-06T16:18:24.533Z,44.32
2023-04-06T16:20:51.180Z,45.32
2023-04-06T16:23:17.755Z,45.05
2023-04-06T16:25:44.418Z,45.64
2023-04-06T16:28:11.188Z,45.83
2023-04-06T16:30:39.261Z,45.46
2023-04-06T16:33:06.313Z,45.54
2023-04-06T16:35:33.518Z,46.45
2023-04-06T16:38:03.108Z,47.59
2023-04-06T16:40:29.778Z,47.78
2023-04-06T16:42:56.370Z,48.05
2023-04-06T16:45:24.172Z,49.02
2023-04-06T16:47:50.954Z,49.64
2023-04-06T16:50:17.720Z,51.12
2023-04-06T16:52:44.708Z,51.38
2023-04-06T16:55:11.725Z,52.45
2023-04-06T16:57:38.578Z,52.08
2023-04-06T17:00:07.541Z,52.78
2023-04-06T17:02:36.474Z,53.08
2023-04-06T17:05:04.092Z,53.63
2023-04-06T17:07:33.074Z,53.52
2023-04-06T17:10:01.219Z,54.91
2023-04-06T17:12:29.063Z,54.92
2023-04-06T17:14:55.813Z,55.91
2023-04-06T17:17:22.778Z,55.86
2023-04-06T17:19:49.733Z,57.02
2023-04-06T17:22:20.716Z,58.23
2023-04-06T17:24:49.007Z,57.69
2023-04-06T17:27:16.284Z,58.91
2023-04-06T17:29:43.291Z,60.00
2023-04-06T17:32:10.882Z,60.18
2023-04-06T17:34:37.534Z,59.93
2023-04-06T17:37:04.085Z,60.22
2023-04-06T17:39:30.707Z,61.66
2023-04-06T17:41:58.014Z,62.27
2023-04-06T17:44:24.582Z,62.43
2023-04-06T17:46:51.312Z,63.21
2023-04-06T17:49:17.952Z,62.47
2023-04-06T17:51:45.173Z,63.15
2023-04-06T17:54:11.806Z,64.18
2023-04-06T17:56:38.458Z,64.23
2023-04-06T17:59:08.072Z,65.17
2023-04-06T18:01:35.164Z,64.84
2023-04-06T18:04:01.909Z,64.78
2023-04-06T18:06:28.676Z,64.20
2023-04-06T18:08:55.326Z,64.59
2023-04-06T18:11:22.064Z,65.25
2023-04-06T18:13:48.970Z,65.94
2023-04-06T18:16:17.612Z,65.65
2023-04-06T18:18:44.623Z,66.76
2023-04-06T18:21:11.471Z,66.73
2023-04-06T18:23:38.445Z,66.65
2023-04-06T18:26:05.920Z,66.83
2023-04-06T18:28:33.417Z,67.07
2023-04-06T18:31:00.657Z,67.58
2023-04-06T18:33:27.590Z,67.74
2023-04-06T18:35:56.598Z,68.25
2023-04-06T18:38:23.808Z,68.43
2023-04-06T18:40:50.523Z,67.74
2023-04-06T18:43:17.133Z,68.98
2023-04-06T18:45:44.078Z,68.43
2023-04-06T18:48:10.945Z,68.87
2023-04-06T18:50:37.526Z,68.22
2023-04-06T18:53:04.119Z,68.59
2023-04-06T18:55:34.189Z,68.21
2023-04-06T18:58:00.949Z,69.28
2023-04-06T19:00:27.626Z,69.18
2023-04-06T19:02:54.499Z,69.78
2023-04-06T19:05:22.387Z,69.25
2023-04-06T19:07:52.408Z,69.31
2023-04-06T19:10:19.888Z,69.81
2023-04-06T19:12:47.705Z,70.40
2023-04-06T19:15:14.645Z,70.09
2023-04-06T19:17:41.332Z,70.13
2023-04-06T19:20:09.173Z,70.34
2023-04-06T19:22:37.150Z,70.71
2023-04-06T19:25:06.354Z,69.73
2023-04-06T19:27:33.169Z,71.38
2023-04-06T19:30:00.604Z,71.49
2023-04-06T19:32:27.681Z,71.32
2023-04-06T19:34:54.350Z,71.96
2023-04-06T19:37:21.593Z,71.39
2023-04-06T19:39:48.201Z,72.08
2023-04-06T19:42:15.685Z,72.28
2023-04-06T19:44:42.357Z,74.09
2023-04-06T19:47:10.245Z,73.72
2023-04-06T19:49:38.056Z,73.68
2023-04-06T19:52:05.928Z,74.31
2023-04-06T19:54:32.483Z,73.59
2023-04-06T19:56:59.063Z,73.60
2023-04-06T19:59:25.737Z,74.93
2023-04-06T20:01:52.390Z,74.08
2023-04-06T20:04:19.166Z,74.71
2023-04-06T20:06:46.073Z,73.75
2023-04-06T20:09:15.138Z,74.51
2023-04-06T20:11:41.755Z,74.06
2023-04-06T20:14:08.967Z,74.25
2023-04-06T20:16:35.677Z,73.79
2023-04-06T20:19:02.448Z,73.42
2023-04-06T20:21:29.125Z,74.08
2023-04-06T20:23:55.811Z,74.29
2023-04-06T20:26:22.392Z,74.14
2023-04-06T20:28:49.015Z,74.90
2023-04-06T20:31:15.731Z,75.17
2023-04-06T20:33:42.630Z,75.56
2023-04-06T20:36:12.771Z,75.70
2023-04-06T20:38:42.837Z,75.03
2023-04-06T20:41:10.322Z,75.30
2023-04-06T20:43:37.018Z,74.82
2023-04-06T20:46:04.168Z,75.28
2023-04-06T20:48:33.391Z,75.69
2023-04-06T20:51:01.895Z,75.29
2023-04-06T20:53:28.487Z,75.51
2023-04-06T20:55:55.190Z,75.12
2023-04-06T20:58:21.926Z,74.75
2023-04-06T21:00:49.638Z,74.31
2023-04-06T21:03:19.733Z,73.89
2023-04-06T21:05:54.473Z,75.46
2023-04-06T21:08:21.307Z,74.97
2023-04-06T21:10:47.904Z,74.91
2023-04-06T21:13:14.528Z,74.59
2023-04-06T21:15:41.301Z,75.37
2023-04-06T21:18:08.089Z,75.77
2023-04-06T21:20:35.462Z,75.41
2023-04-06T21:23:02.053Z,75.75
2023-04-06T21:25:28.590Z,77.15
2023-04-06T21:27:56.939Z,76.15
2023-04-06T21:30:23.509Z,77.03
2023-04-06T21:32:50.176Z,76.44
2023-04-06T21:35:16.833Z,76.54
2023-04-06T21:37:43.423Z,76.55
2023-04-06T21:40:10.409Z,76.72
2023-04-06T21:42:37.073Z,76.41
2023-04-06T21:45:03.847Z,75.88
2023-04-06T21:47:30.483Z,76.65
2023-04-06T21:49:57.048Z,76.80
2023-04-06T21:52:23.606Z,75.97
2023-04-06T21:54:50.132Z,75.91
2023-04-06T21:57:16.719Z,76.41
2023-04-06T21:59:43.394Z,76.33
2023-04-06T22:02:10.088Z,77.03
2023-04-06T22:04:37.053Z,76.21
2023-04-06T22:07:03.943Z,75.86
2023-04-06T22:09:31.536Z,77.26
2023-04-06T22:11:58.098Z,77.45
2023-04-06T22:14:25.790Z,77.01
2023-04-06T22:16:52.349Z,76.67
2023-04-06T22:19:18.908Z,76.45
2023-04-06T22:21:45.567Z,75.27
2023-04-06T22:24:12.376Z,75.77
2023-04-06T22:26:39.039Z,74.78
2023-04-06T22:29:05.726Z,76.07
2023-04-06T22:31:32.347Z,76.00
2023-04-06T22:33:58.946Z,75.78
2023-04-06T22:36:26.751Z,76.38
2023-04-06T22:38:53.297Z,75.51
2023-04-06T22:41:19.877Z,75.15
2023-04-06T22:43:46.507Z,75.23
2023-04-06T22:46:13.102Z,74.81
2023-04-06T22:48:39.687Z,75.12
2023-04-06T22:51:06.324Z,75.32
2023-04-06T22:53:32.973Z,74.18
2023-04-06T22:55:59.600Z,74.86
2023-04-06T22:58:26.431Z,75.51
2023-04-06T23:00:53.022Z,75.28
2023-04-06T23:03:19.672Z,73.97
2023-04-06T23:05:47.655Z,74.47
2023-04-06T23:08:14.302Z,74.62
2023-04-06T23:10:42.168Z,74.64
2023-04-06T23:13:09.826Z,74.26
2023-04-06T23:15:37.981Z,75.28
2023-04-06T23:18:04.640Z,75.31
2023-04-06T23:20:31.472Z,74.78
2023-04-06T23:22:58.037Z,74.82
2023-04-06T23:25:24.656Z,74.68
2023-04-06T23:27:52.361Z,74.16
2023-04-06T23:30:18.919Z,75.18
2023-04-06T23:32:45.956Z,75.03
2023-04-06T23:35:12.664Z,74.18
2023-04-06T23:37:39.416Z,75.80
2023-04-06T23:40:06.686Z,75.13
2023-04-06T23:42:33.312Z,75.78
2023-04-06T23:44:59.878Z,76.84
2023-04-06T23:47:26.495Z,77.19
2023-04-06T23:49:53.389Z,76.81
2023-04-06T23:52:20.427Z,76.70
2023-04-06T23:54:46.997Z,75.73
2023-04-06T23:57:13.590Z,73.59
2023-04-06T23:59:40.171Z,74.18
